createdAt,value
2024-02-12T00:00:20.215Z,99610.81
2024-02-12T00:02:50.567Z,99622.38
2024-02-12T00:05:18.703Z,99619.84
2024-02-12T00:07:46.785Z,99614.47
2024-02-12T00:10:17.403Z,99627.13
2024-02-12T00:12:48.123Z,99623.63
2024-02-12T00:15:18.167Z,99628.13
2024-02-12T00:17:46.328Z,99633.50
2024-02-12T00:20:18.068Z,99640.69
2024-02-12T00:22:47.145Z,99640.81
2024-02-12T00:25:17.351Z,99653.38
2024-02-12T00:27:45.339Z,99648.97
2024-02-12T00:30:17.232Z,99656.16
2024-02-12T00:32:45.643Z,99662.50
2024-02-12T00:35:17.010Z,99667.97
2024-02-12T00:37:45.088Z,99672.50
2024-02-12T00:40:16.389Z,99671.63
2024-02-12T00:42:45.786Z,99675.31
2024-02-12T00:45:14.157Z,99676.28
2024-02-12T00:47:42.558Z,99685.28
2024-02-12T00:50:11.510Z,99683.59
2024-02-12T00:52:40.897Z,99688.09
2024-02-12T00:55:11.704Z,99696.28
2024-02-12T00:57:39.713Z,99702.50
2024-02-12T01:00:14.267Z,99692.75
2024-02-12T01:02:43.606Z,99702.72
2024-02-12T01:05:12.551Z,99699.22
2024-02-12T01:07:43.024Z,99708.22
2024-02-12T01:10:12.186Z,99710.03
2024-02-12T01:12:41.507Z,99718.94
2024-02-12T01:15:11.752Z,99724.41
2024-02-12T01:17:44.826Z,99723.56
2024-02-12T01:20:24.258Z,99725.41
2024-02-12T01:22:54.135Z,99732.59
2024-02-12T01:25:22.892Z,99732.59
2024-02-12T01:27:54.783Z,99733.56
2024-02-12T01:30:23.512Z,99736.25
2024-02-12T01:32:55.272Z,99734.53
2024-02-12T01:35:23.391Z,99735.50
2024-02-12T01:37:53.645Z,99732.81
2024-02-12T01:40:21.880Z,99741.00
2024-02-12T01:42:51.303Z,99745.50
2024-02-12T01:45:25.510Z,99743.69
2024-02-12T01:47:59.592Z,99746.34
2024-02-12T01:50:29.601Z,99753.53
2024-02-12T01:52:59.076Z,99750.00
2024-02-12T01:55:28.026Z,99759.84
2024-02-12T01:57:56.166Z,99752.81
2024-02-12T02:00:24.735Z,99755.47
2024-02-12T02:02:55.821Z,99758.16
2024-02-12T02:05:27.153Z,99756.47
2024-02-12T02:07:58.439Z,99769.00
2024-02-12T02:10:28.222Z,99766.44
2024-02-12T02:12:58.049Z,99768.13
2024-02-12T02:15:26.966Z,99770.94
2024-02-12T02:17:58.262Z,99764.75
2024-02-12T02:20:28.155Z,99767.41
2024-02-12T02:22:57.644Z,99779.13
2024-02-12T02:25:27.050Z,99776.44
2024-02-12T02:27:57.049Z,99779.13
2024-02-12T02:30:25.059Z,99786.31
2024-02-12T02:32:53.604Z,99782.75
2024-02-12T02:35:21.727Z,99784.59
2024-02-12T02:38:03.150Z,99782.88
2024-02-12T02:40:32.724Z,99796.28
2024-02-12T02:43:02.123Z,99793.59
2024-02-12T02:45:30.300Z,99790.06
2024-02-12T02:47:58.476Z,99791.03
2024-02-12T02:50:28.128Z,99787.41
2024-02-12T02:52:56.308Z,99791.03
2024-02-12T02:55:25.924Z,99792.75
2024-02-12T02:58:03.176Z,99794.66
2024-02-12T03:00:31.457Z,99791.97
2024-02-12T03:02:59.503Z,99798.31
2024-02-12T03:05:28.726Z,99802.69
2024-02-12T03:08:03.919Z,99805.38
2024-02-12T03:10:32.428Z,99805.38
2024-02-12T03:13:01.910Z,99808.03
2024-02-12T03:15:30.927Z,99810.84
2024-02-12T03:18:00.519Z,99810.84
2024-02-12T03:20:34.272Z,99815.38
2024-02-12T03:23:02.699Z,99814.38
2024-02-12T03:25:30.759Z,99822.56
2024-02-12T03:27:58.848Z,99816.34
2024-02-12T03:30:28.420Z,99827.91
2024-02-12T03:33:03.230Z,99834.09
2024-02-12T03:35:34.290Z,99836.78
2024-02-12T03:38:02.445Z,99834.09
2024-02-12T03:40:30.502Z,99842.16
2024-02-12T03:42:58.581Z,99836.78
2024-02-12T03:45:27.873Z,99840.44
2024-02-12T03:48:01.585Z,99840.31
2024-02-12T03:50:47.056Z,99846.66
2024-02-12T03:53:29.228Z,99853.84
2024-02-12T03:56:15.392Z,99858.22
2024-02-12T03:59:00.954Z,99865.41
2024-02-12T04:01:33.071Z,99863.66
2024-02-12T04:04:01.137Z,99870.84
2024-02-12T04:06:35.742Z,99870.97
2024-02-12T04:09:03.943Z,99880.84
2024-02-12T04:11:33.113Z,99872.81
2024-02-12T04:14:01.752Z,99876.34
2024-02-12T04:16:29.820Z,99866.47
2024-02-12T04:18:59.521Z,99872.91
2024-02-12T04:21:30.854Z,99888.13
2024-02-12T04:23:59.202Z,99888.97
2024-02-12T04:26:29.689Z,99890.81
2024-02-12T04:29:01.380Z,99897.16
2024-02-12T04:31:29.504Z,99900.69
2024-02-12T04:34:01.344Z,99899.06
2024-02-12T04:36:29.385Z,99903.47
2024-02-12T04:39:01.864Z,99901.75
2024-02-12T04:41:29.858Z,99904.44
2024-02-12T04:44:00.608Z,99899.06
2024-02-12T04:46:28.624Z,99901.75
2024-02-12T04:48:58.381Z,99897.38
2024-02-12T04:51:29.696Z,99910.78
2024-02-12T04:54:00.314Z,99913.44
2024-02-12T04:56:28.781Z,99909.19
2024-02-12T04:58:58.477Z,99919.03
2024-02-12T05:01:28.469Z,99914.66
2024-02-12T05:04:02.540Z,99920.16
2024-02-12T05:06:33.842Z,99924.66
2024-02-12T05:09:05.379Z,99925.50
2024-02-12T05:11:35.198Z,99940.72
2024-02-12T05:14:03.419Z,99933.63
2024-02-12T05:16:32.053Z,99938.13
2024-02-12T05:19:17.983Z,99936.66
2024-02-12T05:22:05.016Z,99946.50
2024-02-12T05:24:33.614Z,99948.19
2024-02-12T05:27:02.737Z,99955.34
2024-02-12T05:29:31.115Z,99949.66
2024-02-12T05:31:59.898Z,99951.13
2024-02-12T05:34:28.340Z,99957.94
2024-02-12T05:36:57.671Z,99952.47
2024-02-12T05:39:26.444Z,99947.97
2024-02-12T05:41:54.348Z,99955.91
2024-02-12T05:44:24.921Z,99951.41
2024-02-12T05:46:53.082Z,99951.25
2024-02-12T05:49:26.404Z,99954.78
2024-02-12T05:51:56.328Z,99947.75
2024-02-12T05:54:26.556Z,99952.13
2024-02-12T05:56:55.493Z,99948.50
2024-02-12T05:59:23.515Z,99950.28
2024-02-12T06:01:54.133Z,99955.63
2024-02-12T06:04:22.215Z,99955.03
2024-02-12T06:06:50.330Z,99962.94
2024-02-12T06:09:21.219Z,99966.47
2024-02-12T06:11:50.666Z,99967.31
2024-02-12T06:14:19.383Z,99971.81
2024-02-12T06:16:47.525Z,99968.31
2024-02-12T06:19:15.811Z,99969.28
2024-02-12T06:21:46.509Z,99974.63
2024-02-12T06:24:16.305Z,99971.97
2024-02-12T06:26:44.870Z,99979.13
2024-02-12T06:29:16.546Z,99978.25
2024-02-12T06:31:46.296Z,99977.41
2024-02-12T06:34:14.540Z,99982.75
2024-02-12T06:36:42.626Z,99984.59
2024-02-12T06:39:10.684Z,99998.09
2024-02-12T06:41:38.613Z,99994.44
2024-02-12T06:44:06.884Z,99995.41
2024-02-12T06:46:36.201Z,100005.16
2024-02-12T06:49:05.059Z,100005.28
2024-02-12T06:51:33.365Z,100005.38
2024-02-12T06:54:01.390Z,100009.03
2024-02-12T06:56:30.176Z,100006.47
2024-02-12T06:58:58.190Z,100016.22
2024-02-12T07:01:28.457Z,100020.81
2024-02-12T07:03:58.841Z,100018.13
2024-02-12T07:06:26.935Z,100021.78
2024-02-12T07:08:54.930Z,100026.28
2024-02-12T07:11:22.917Z,100028.22
2024-02-12T07:13:50.925Z,100031.88
2024-02-12T07:16:19.578Z,100035.53
2024-02-12T07:18:48.107Z,100034.66
2024-02-12T07:21:18.867Z,100040.88
2024-02-12T07:23:49.110Z,100048.06
2024-02-12T07:26:17.145Z,100058.63
2024-02-12T07:28:50.441Z,100050.59
2024-02-12T07:31:18.587Z,100053.28
2024-02-12T07:33:46.749Z,100059.47
2024-02-12T07:36:14.897Z,100053.28
2024-02-12T07:38:44.544Z,100063.97
2024-02-12T07:41:15.037Z,100068.34
2024-02-12T07:43:46.097Z,100064.84
2024-02-12T07:46:15.949Z,100073.63
2024-02-12T07:48:44.380Z,100080.78
2024-02-12T07:51:12.755Z,100091.50
2024-02-12T07:53:41.801Z,100090.53
2024-02-12T07:56:14.767Z,100094.06
2024-02-12T07:58:45.456Z,100086.88
2024-02-12T08:01:13.402Z,100095.03
2024-02-12T08:03:44.970Z,100103.06
2024-02-12T08:06:14.305Z,100104.88
2024-02-12T08:08:43.262Z,100109.25
2024-02-12T08:11:12.739Z,100117.28
2024-02-12T08:13:40.773Z,100120.81
2024-02-12T08:16:10.314Z,100117.41
2024-02-12T08:18:38.530Z,100128.00
2024-02-12T08:21:07.171Z,100128.97
2024-02-12T08:23:36.224Z,100128.00
2024-02-12T08:26:08.181Z,100130.88
2024-02-12T08:28:37.622Z,100137.94
2024-02-12T08:31:05.646Z,100139.66
2024-02-12T08:33:42.924Z,100138.81
2024-02-12T08:36:11.030Z,100148.56
2024-02-12T08:38:39.434Z,100143.28
2024-02-12T08:41:07.585Z,100153.06
2024-02-12T08:43:36.935Z,100155.59
2024-02-12T08:46:05.168Z,100157.44
2024-02-12T08:48:33.216Z,100160.97
2024-02-12T08:51:01.277Z,100164.63
2024-02-12T08:53:34.557Z,100163.63
2024-02-12T08:56:02.652Z,100174.34
2024-02-12T08:58:33.462Z,100171.66
2024-02-12T09:01:03.314Z,100176.16
2024-02-12T09:03:31.596Z,100181.53
2024-02-12T09:05:59.585Z,100177.88
2024-02-12T09:08:27.701Z,100193.06
2024-02-12T09:10:56.676Z,100192.09
2024-02-12T09:13:25.190Z,100192.94
2024-02-12T09:15:53.955Z,100196.38
2024-02-12T09:18:23.471Z,100198.00
2024-02-12T09:20:53.986Z,100203.34
2024-02-12T09:23:25.458Z,100208.78
2024-02-12T09:25:53.653Z,100209.78
2024-02-12T09:28:28.305Z,100227.53
2024-02-12T09:30:58.818Z,100226.56
2024-02-12T09:33:30.793Z,100232.88
2024-02-12T09:35:59.025Z,100234.59
2024-02-12T09:38:28.443Z,100239.22
2024-02-12T09:40:59.097Z,100242.00
2024-02-12T09:43:27.893Z,100239.34
2024-02-12T09:45:56.938Z,100251.63
2024-02-12T09:48:26.426Z,100254.84
2024-02-12T09:50:56.288Z,100257.34
2024-02-12T09:53:25.835Z,100263.53
2024-02-12T09:55:57.061Z,100267.91
2024-02-12T09:58:25.102Z,100271.44
2024-02-12T10:00:55.194Z,100277.66
2024-02-12T10:03:23.233Z,100278.53
2024-02-12T10:05:51.697Z,100284.75
2024-02-12T10:08:22.935Z,100292.66
2024-02-12T10:10:54.817Z,100284.63
2024-02-12T10:13:24.882Z,100296.16
2024-02-12T10:15:56.969Z,100297.03
2024-02-12T10:18:25.154Z,100295.31
2024-02-12T10:20:53.230Z,100300.56
2024-02-12T10:23:22.666Z,100299.69
2024-02-12T10:25:52.501Z,100304.13
2024-02-12T10:28:23.055Z,100309.47
2024-02-12T10:30:51.172Z,100300.56
2024-02-12T10:33:19.460Z,100311.25
2024-02-12T10:35:52.447Z,100313.00
2024-02-12T10:38:21.793Z,100308.59
2024-02-12T10:41:05.392Z,100319.19
2024-02-12T10:43:36.006Z,100320.16
2024-02-12T10:46:05.817Z,100325.41
2024-02-12T10:48:37.314Z,100329.06
2024-02-12T10:51:06.523Z,100325.41
2024-02-12T10:53:40.744Z,100336.97
2024-02-12T10:56:11.023Z,100330.75
2024-02-12T10:58:40.118Z,100337.94
2024-02-12T11:01:13.882Z,100338.91
2024-02-12T11:03:43.729Z,100345.53
2024-02-12T11:06:13.300Z,100343.69
2024-02-12T11:08:42.887Z,100347.66
2024-02-12T11:11:20.770Z,100349.50
2024-02-12T11:13:49.875Z,100347.66
2024-02-12T11:16:21.395Z,100352.91
2024-02-12T11:18:56.048Z,100360.00
2024-02-12T11:21:27.334Z,100358.06
2024-02-12T11:24:04.043Z,100358.69
2024-02-12T11:26:39.253Z,100365.66
2024-02-12T11:29:08.002Z,100357.53
2024-02-12T11:31:40.080Z,100360.19
2024-02-12T11:34:14.577Z,100359.13
2024-02-12T11:36:43.775Z,100363.41
2024-02-12T11:39:12.378Z,100357.09
2024-02-12T11:41:42.050Z,100356.97
2024-02-12T11:44:10.385Z,100361.47
2024-02-12T11:46:39.762Z,100357.09
2024-02-12T11:49:09.071Z,100363.06
2024-02-12T11:51:38.489Z,100361.16
2024-02-12T11:54:07.872Z,100362.13
2024-02-12T11:56:36.272Z,100361.16
2024-02-12T11:59:06.883Z,100371.00
2024-02-12T12:01:36.712Z,100375.31
2024-02-12T12:04:05.173Z,100370.91
2024-02-12T12:06:35.274Z,100368.22
2024-02-12T12:09:06.528Z,100374.53
2024-02-12T12:11:34.802Z,100383.53
2024-02-12T12:14:08.138Z,100373.78
2024-02-12T12:16:37.581Z,100380.09
2024-02-12T12:19:07.235Z,100381.94
2024-02-12T12:21:36.714Z,100377.53
2024-02-12T12:24:12.565Z,100376.69
2024-02-12T12:26:41.036Z,100376.78
2024-02-12T12:29:11.505Z,100380.31
2024-02-12T12:31:39.676Z,100383.88
2024-02-12T12:34:08.043Z,100388.25
2024-02-12T12:36:36.929Z,100381.19
2024-02-12T12:39:06.322Z,100384.72
2024-02-12T12:41:36.018Z,100384.72
2024-02-12T12:44:04.584Z,100382.03
2024-02-12T12:46:36.105Z,100382.13
2024-02-12T12:49:05.456Z,100393.69
2024-02-12T12:51:33.594Z,100398.09
2024-02-12T12:54:01.576Z,100401.72
2024-02-12T12:56:29.592Z,100402.59
2024-02-12T12:58:58.019Z,100399.03
2024-02-12T13:01:26.400Z,100399.81
2024-02-12T13:03:55.803Z,100401.50
2024-02-12T13:06:24.308Z,100406.78
2024-02-12T13:08:52.348Z,100411.25
2024-02-12T13:11:20.399Z,100418.34
2024-02-12T13:13:48.375Z,100414.69
2024-02-12T13:16:18.894Z,100411.03
2024-02-12T13:18:47.176Z,100414.56
2024-02-12T13:21:17.156Z,100413.63
2024-02-12T13:23:46.059Z,100416.31
2024-02-12T13:26:15.567Z,100413.63
2024-02-12T13:28:43.958Z,100422.53
2024-02-12T13:31:14.547Z,100424.34
2024-02-12T13:33:45.007Z,100421.66
2024-02-12T13:36:13.191Z,100421.66
2024-02-12T13:38:48.400Z,100424.34
2024-02-12T13:41:16.805Z,100429.69
2024-02-12T13:43:45.913Z,100428.84
2024-02-12T13:46:13.938Z,100418.13
2024-02-12T13:48:43.862Z,100421.66
2024-02-12T13:51:11.941Z,100430.75
2024-02-12T13:53:39.930Z,100431.59
2024-02-12T13:56:09.394Z,100429.91
2024-02-12T13:58:37.359Z,100434.50
2024-02-12T14:01:16.609Z,100451.41
2024-02-12T14:03:55.257Z,100470.13
2024-02-12T14:06:23.425Z,100486.19
2024-02-12T14:08:54.488Z,100477.44
2024-02-12T14:11:29.317Z,100486.31
2024-02-12T14:13:57.359Z,100473.78
2024-02-12T14:16:25.353Z,100487.16
2024-02-12T14:18:54.512Z,100482.78
2024-02-12T14:21:25.615Z,100482.78
2024-02-12T14:23:53.685Z,100490.81
2024-02-12T14:26:22.898Z,100496.16
2024-02-12T14:28:55.262Z,100510.41
2024-02-12T14:31:24.346Z,100509.56
2024-02-12T14:33:52.723Z,100514.91
2024-02-12T14:36:22.978Z,100505.91
2024-02-12T14:38:51.281Z,100512.22
2024-02-12T14:41:19.443Z,100513.94
2024-02-12T14:43:47.721Z,100519.28
2024-02-12T14:46:17.545Z,100525.50
2024-02-12T14:48:45.930Z,100523.69
2024-02-12T14:51:14.620Z,100532.69
2024-02-12T14:53:42.682Z,100531.72
2024-02-12T14:56:13.629Z,100534.38
2024-02-12T14:58:42.233Z,100545.00
2024-02-12T15:01:14.115Z,100556.69
2024-02-12T15:03:44.218Z,100549.50
2024-02-12T15:06:12.759Z,100565.47
2024-02-12T15:08:42.161Z,100565.47
2024-02-12T15:11:10.988Z,100568.06
2024-02-12T15:13:38.984Z,100569.84
2024-02-12T15:16:11.369Z,100571.66
2024-02-12T15:18:43.969Z,100575.19
2024-02-12T15:21:12.177Z,100584.97
2024-02-12T15:23:40.605Z,100584.97
2024-02-12T15:26:09.379Z,100592.03
2024-02-12T15:28:37.610Z,100585.81
2024-02-12T15:31:05.814Z,100593.75
2024-02-12T15:33:34.164Z,100595.56
2024-02-12T15:36:05.654Z,100605.31
2024-02-12T15:38:35.151Z,100615.06
2024-02-12T15:41:04.547Z,100611.50
2024-02-12T15:43:32.705Z,100628.47
2024-02-12T15:46:05.100Z,100627.50
2024-02-12T15:48:34.115Z,100630.16
2024-02-12T15:51:04.918Z,100631.88
2024-02-12T15:53:32.987Z,100623.84
2024-02-12T15:56:01.044Z,100624.69
2024-02-12T15:58:29.343Z,100627.28
2024-02-12T16:01:01.317Z,100630.81
2024-02-12T16:03:29.437Z,100632.66
2024-02-12T16:06:12.534Z,100650.41
2024-02-12T16:08:45.766Z,100633.59
2024-02-12T16:11:20.908Z,100648.59
2024-02-12T16:13:53.328Z,100649.44
2024-02-12T16:16:26.496Z,100652.13
2024-02-12T16:18:56.917Z,100665.53
2024-02-12T16:21:27.202Z,100659.19
2024-02-12T16:23:56.080Z,100667.22
2024-02-12T16:26:26.195Z,100677.94
2024-02-12T16:28:55.138Z,100677.00
2024-02-12T16:31:23.097Z,100683.28
2024-02-12T16:33:52.369Z,100685.03
2024-02-12T16:36:20.902Z,100686.75
2024-02-12T16:38:54.347Z,100698.19
2024-02-12T16:41:25.734Z,100704.53
2024-02-12T16:43:56.742Z,100705.38
2024-02-12T16:46:24.756Z,100701.00
2024-02-12T16:48:53.109Z,100710.72
2024-02-12T16:51:21.327Z,100714.25
2024-02-12T16:53:49.480Z,100716.94
2024-02-12T16:56:18.956Z,100727.56
2024-02-12T16:58:46.967Z,100723.06
2024-02-12T17:01:15.021Z,100733.66
2024-02-12T17:03:48.553Z,100736.34
2024-02-12T17:06:20.791Z,100737.19
2024-02-12T17:08:50.146Z,100738.09
2024-02-12T17:11:19.925Z,100747.63
2024-02-12T17:13:48.895Z,100754.72
2024-02-12T17:16:26.445Z,100759.94
2024-02-12T17:19:04.771Z,100766.81
2024-02-12T17:21:32.869Z,100772.19
2024-02-12T17:24:00.914Z,100781.97
2024-02-12T17:26:30.396Z,100788.09
2024-02-12T17:28:58.962Z,100795.16
2024-02-12T17:31:29.536Z,100795.94
2024-02-12T17:33:57.597Z,100802.03
2024-02-12T17:36:25.693Z,100805.59
2024-02-12T17:38:53.748Z,100807.41
2024-02-12T17:41:21.797Z,100819.75
2024-02-12T17:43:51.362Z,100822.34
2024-02-12T17:46:19.578Z,100825.97
2024-02-12T17:48:48.180Z,100828.56
2024-02-12T17:51:16.381Z,100834.78
2024-02-12T17:53:44.548Z,100844.53
2024-02-12T17:56:15.404Z,100839.06
2024-02-12T17:58:45.286Z,100846.16
2024-02-12T18:01:15.792Z,100854.06
2024-02-12T18:03:44.109Z,100861.16
2024-02-12T18:06:12.356Z,100860.28
2024-02-12T18:08:40.449Z,100863.94
2024-02-12T18:11:08.485Z,100869.19
2024-02-12T18:13:36.507Z,100878.09
2024-02-12T18:16:04.487Z,100879.53
2024-02-12T18:18:35.759Z,100890.56
2024-02-12T18:21:03.864Z,100878.00
2024-02-12T18:23:31.924Z,100891.34
2024-02-12T18:26:01.076Z,100896.75
2024-02-12T18:28:30.280Z,100902.91
2024-02-12T18:30:58.633Z,100917.03
2024-02-12T18:33:26.704Z,100915.34
2024-02-12T18:35:56.182Z,100924.72
2024-02-12T18:38:24.285Z,100919.34
2024-02-12T18:40:53.357Z,100929.03
2024-02-12T18:43:23.327Z,100931.59
2024-02-12T18:45:51.541Z,100928.72
2024-02-12T18:48:19.752Z,100931.28
2024-02-12T18:50:48.286Z,100941.09
2024-02-12T18:53:21.040Z,100939.16
2024-02-12T18:55:50.411Z,100940.00
2024-02-12T18:58:18.376Z,100938.97
2024-02-12T19:00:46.460Z,100948.81
2024-02-12T19:03:17.360Z,100971.00
2024-02-12T19:05:48.242Z,100962.88
2024-02-12T19:08:17.810Z,100960.22
2024-02-12T19:10:45.908Z,100965.47
2024-02-12T19:13:14.004Z,100968.06
2024-02-12T19:15:42.393Z,100971.59
2024-02-12T19:18:10.565Z,100974.16
2024-02-12T19:20:38.903Z,100979.41
2024-02-12T19:23:09.177Z,100986.03
2024-02-12T19:25:38.723Z,100989.31
2024-02-12T19:28:10.826Z,100995.53
2024-02-12T19:30:39.212Z,100998.88
2024-02-12T19:33:07.377Z,101005.84
2024-02-12T19:35:38.095Z,101009.28
2024-02-12T19:38:08.997Z,101010.94
2024-02-12T19:40:38.559Z,101016.19
2024-02-12T19:43:09.358Z,101013.41
2024-02-12T19:45:37.552Z,101021.38
2024-02-12T19:48:06.492Z,101028.44
2024-02-12T19:50:34.624Z,101027.47
2024-02-12T19:53:02.635Z,101036.38
2024-02-12T19:55:32.823Z,101035.31
2024-02-12T19:58:02.736Z,101043.38
2024-02-12T20:00:34.538Z,101048.63
2024-02-12T20:03:07.622Z,101051.31
2024-02-12T20:05:36.587Z,101061.09
2024-02-12T20:08:05.567Z,101062.03
2024-02-12T20:10:33.668Z,101071.81
2024-02-12T20:13:06.982Z,101081.56
2024-02-12T20:15:36.503Z,101078.88
2024-02-12T20:18:06.542Z,101087.69
2024-02-12T20:20:35.286Z,101090.47
2024-02-12T20:23:07.849Z,101097.53
2024-02-12T20:25:36.171Z,101099.28
2024-02-12T20:28:07.565Z,101107.31
2024-02-12T20:30:35.876Z,101107.31
2024-02-12T20:33:07.216Z,101113.53
2024-02-12T20:35:35.414Z,101112.59
2024-02-12T20:38:04.128Z,101118.81
2024-02-12T20:40:32.954Z,101111.63
2024-02-12T20:43:01.407Z,101114.28
2024-02-12T20:45:30.748Z,101123.19
2024-02-12T20:47:58.937Z,101112.59
2024-02-12T20:50:29.190Z,101116.97
2024-02-12T20:52:59.913Z,101123.19
2024-02-12T20:55:27.988Z,101131.22
2024-02-12T20:57:57.358Z,101129.44
2024-02-12T21:00:25.555Z,101136.59
2024-02-12T21:02:55.031Z,101141.09
2024-02-12T21:05:23.070Z,101142.84
2024-02-12T21:07:52.300Z,101138.41
2024-02-12T21:10:20.310Z,101150.00
2024-02-12T21:12:48.290Z,101149.16
2024-02-12T21:15:18.851Z,101144.63
2024-02-12T21:17:50.008Z,101148.22
2024-02-12T21:20:19.547Z,101157.09
2024-02-12T21:22:47.569Z,101155.28
2024-02-12T21:25:16.090Z,101159.69
2024-02-12T21:27:45.628Z,101166.88
2024-02-12T21:30:14.869Z,101170.41
2024-02-12T21:32:44.059Z,101180.28
2024-02-12T21:35:13.048Z,101175.78
2024-02-12T21:37:42.740Z,101173.09
2024-02-12T21:40:16.366Z,101177.47
2024-02-12T21:42:45.512Z,101181.03
2024-02-12T21:45:18.739Z,101189.97
2024-02-12T21:47:48.274Z,101189.06
2024-02-12T21:50:17.853Z,101188.13
2024-02-12T21:52:48.590Z,101188.22
2024-02-12T21:55:16.693Z,101191.75
2024-02-12T21:57:48.608Z,101189.97
2024-02-12T22:00:18.136Z,101187.28
2024-02-12T22:02:46.395Z,101206.03
2024-02-12T22:05:14.861Z,101198.06
2024-02-12T22:07:42.842Z,101193.69
2024-02-12T22:10:12.744Z,101195.50
2024-02-12T22:12:43.518Z,101197.31
2024-02-12T22:15:14.368Z,101195.56
2024-02-12T22:17:43.216Z,101201.03
2024-02-12T22:20:15.866Z,101204.56
2024-02-12T22:22:44.152Z,101212.63
2024-02-12T22:25:15.937Z,101215.41
2024-02-12T22:27:43.954Z,101217.22
2024-02-12T22:30:13.322Z,101219.13
2024-02-12T22:32:41.347Z,101225.44
2024-02-12T22:35:10.165Z,101227.25
2024-02-12T22:37:39.176Z,101230.88
2024-02-12T22:40:08.796Z,101229.16
2024-02-12T22:42:38.205Z,101232.88
2024-02-12T22:45:07.338Z,101235.56
2024-02-12T22:47:38.056Z,101246.28
2024-02-12T22:50:07.328Z,101244.56
2024-02-12T22:52:35.373Z,101262.44
2024-02-12T22:55:03.671Z,101258.91
2024-02-12T22:57:31.688Z,101261.69
2024-02-12T23:00:01.174Z,101266.16
2024-02-12T23:02:31.726Z,101281.50
2024-02-12T23:04:59.736Z,101277.25
2024-02-12T23:07:27.817Z,101280.91
2024-02-12T23:09:56.355Z,101279.16
2024-02-12T23:12:26.383Z,101279.16
2024-02-12T23:14:57.503Z,101278.28
2024-02-12T23:17:27.535Z,101285.47
2024-02-12T23:19:58.317Z,101287.28
2024-02-12T23:22:26.586Z,101298.00
2024-02-12T23:24:54.621Z,101290.84
2024-02-12T23:27:22.624Z,101290.84
2024-02-12T23:29:53.009Z,101291.78
2024-02-12T23:32:22.413Z,101289.19
2024-02-12T23:34:52.912Z,101294.53
2024-02-12T23:37:20.964Z,101300.00
2024-02-12T23:39:48.947Z,101305.34
2024-02-12T23:42:19.877Z,101298.28
2024-02-12T23:44:48.496Z,101304.59
2024-02-12T23:47:16.673Z,101309.06
2024-02-12T23:49:46.906Z,101305.47
2024-02-12T23:52:18.307Z,101312.63
2024-02-12T23:54:46.315Z,101314.44
2024-02-12T23:57:15.645Z,101317.22
2024-02-12T23:59:45.377Z,101328.88
